sensor_id;sensor_type;location;lat;lon;timestamp;pressure;altitude;pressure_sealevel;temperature
69348;BMP280;56497;45.058;41.926;2022-09-09T00:00:23;94977.34;;;16.01
69348;BMP280;56497;45.058;41.926;2022-09-09T00:01:50;94980.06;;;16.01
69348;BMP280;56497;45.058;41.926;2022-09-09T00:02:04;94974.56;;;15.95
69348;BMP280;56497;45.058;41.926;2022-09-09T00:02:42;94973.56;;;15.93
69348;BMP280;56497;45.058;41.926;2022-09-09T00:03:27;94969.31;;;15.92
69348;BMP280;56497;45.058;41.926;2022-09-09T00:04:12;94970.03;;;15.87
69348;BMP280;56497;45.058;41.926;2022-09-09T00:05:34;94970.03;;;15.87
69348;BMP280;56497;45.058;41.926;2022-09-09T00:05:39;94971.06;;;15.89
69348;BMP280;56497;45.058;41.926;2022-09-09T00:06:21;94972.03;;;15.86
69348;BMP280;56497;45.058;41.926;2022-09-09T00:08:15;94978.25;;;15.92
69348;BMP280;56497;45.058;41.926;2022-09-09T00:09:39;94976.75;;;15.86
69348;BMP280;56497;45.058;41.926;2022-09-09T00:10:30;94971.53;;;15.88
69348;BMP280;56497;45.058;41.926;2022-09-09T00:11:03;94979.00;;;15.87
69348;BMP280;56497;45.058;41.926;2022-09-09T00:12:11;94974.50;;;15.84
69348;BMP280;56497;45.058;41.926;2022-09-09T00:13:55;94977.16;;;15.73
69348;BMP280;56497;45.058;41.926;2022-09-09T00:14:47;94973.66;;;15.72
69348;BMP280;56497;45.058;41.926;2022-09-09T00:16:21;94979.88;;;15.73
69348;BMP280;56497;45.058;41.926;2022-09-09T00:17:01;94982.34;;;15.71
69348;BMP280;56497;45.058;41.926;2022-09-09T00:17:55;94983.84;;;15.72
69348;BMP280;56497;45.058;41.926;2022-09-09T00:19:02;94982.81;;;15.64
69348;BMP280;56497;45.058;41.926;2022-09-09T00:19:51;94982.81;;;15.64
69348;BMP280;56497;45.058;41.926;2022-09-09T00:21:06;94980.09;;;15.64
69348;BMP280;56497;45.058;41.926;2022-09-09T00:22:51;94980.59;;;15.68
69348;BMP280;56497;45.058;41.926;2022-09-09T00:23:34;94980.59;;;15.68
69348;BMP280;56497;45.058;41.926;2022-09-09T00:25:21;94971.59;;;15.62
69348;BMP280;56497;45.058;41.926;2022-09-09T00:27:44;94970.41;;;15.63
69348;BMP280;56497;45.058;41.926;2022-09-09T00:28:22;94970.41;;;15.63
69348;BMP280;56497;45.058;41.926;2022-09-09T00:29:47;94970.41;;;15.63
69348;BMP280;56497;45.058;41.926;2022-09-09T00:30:26;94974.59;;;15.58
69348;BMP280;56497;45.058;41.926;2022-09-09T00:31:08;94970.09;;;15.61
69348;BMP280;56497;45.058;41.926;2022-09-09T00:31:41;94970.09;;;15.61
69348;BMP280;56497;45.058;41.926;2022-09-09T00:32:19;94966.63;;;15.60
69348;BMP280;56497;45.058;41.926;2022-09-09T00:32:54;94966.63;;;15.60
69348;BMP280;56497;45.058;41.926;2022-09-09T00:33:26;94971.16;;;15.63
69348;BMP280;56497;45.058;41.926;2022-09-09T00:34:02;94972.66;;;15.64
69348;BMP280;56497;45.058;41.926;2022-09-09T00:34:36;94973.38;;;15.65
69348;BMP280;56497;45.058;41.926;2022-09-09T00:35:17;94969.16;;;15.64
69348;BMP280;56497;45.058;41.926;2022-09-09T00:35:59;94979.06;;;15.61
69348;BMP280;56497;45.058;41.926;2022-09-09T00:36:32;94970.09;;;15.61
69348;BMP280;56497;45.058;41.926;2022-09-09T00:37:05;94975.34;;;15.59
69348;BMP280;56497;45.058;41.926;2022-09-09T00:37:36;94969.13;;;15.58
69348;BMP280;56497;45.058;41.926;2022-09-09T00:38:17;94967.13;;;15.59
69348;BMP280;56497;45.058;41.926;2022-09-09T00:38:52;94974.78;;;15.55
69348;BMP280;56497;45.058;41.926;2022-09-09T00:39:42;94974.03;;;15.54
69348;BMP280;56497;45.058;41.926;2022-09-09T00:40:53;94969.81;;;15.53
69348;BMP280;56497;45.058;41.926;2022-09-09T00:41:49;94973.38;;;15.33
69348;BMP280;56497;45.058;41.926;2022-09-09T00:42:26;94973.38;;;15.33
69348;BMP280;56497;45.058;41.926;2022-09-09T00:43:31;94972.53;;;15.22
69348;BMP280;56497;45.058;41.926;2022-09-09T00:44:03;94972.53;;;15.22
69348;BMP280;56497;45.058;41.926;2022-09-09T00:45:02;94975.38;;;15.07
69348;BMP280;56497;45.058;41.926;2022-09-09T00:47:17;94974.56;;;15.01
69348;BMP280;56497;45.058;41.926;2022-09-09T00:47:52;94969.31;;;14.97
69348;BMP280;56497;45.058;41.926;2022-09-09T00:49:33;94966.53;;;14.92
69348;BMP280;56497;45.058;41.926;2022-09-09T00:50:11;94966.53;;;14.92
69348;BMP280;56497;45.058;41.926;2022-09-09T00:50:57;94962.34;;;14.91
69348;BMP280;56497;45.058;41.926;2022-09-09T00:51:46;94967.44;;;14.83
69348;BMP280;56497;45.058;41.926;2022-09-09T00:52:52;94970.16;;;14.83
69348;BMP280;56497;45.058;41.926;2022-09-09T00:54:57;94965.81;;;14.71
69348;BMP280;56497;45.058;41.926;2022-09-09T00:55:40;94972.31;;;14.73
69348;BMP280;56497;45.058;41.926;2022-09-09T00:56:20;94970.53;;;14.70
69348;BMP280;56497;45.058;41.926;2022-09-09T00:57:41;94974.66;;;14.60
69348;BMP280;56497;45.058;41.926;2022-09-09T00:58:12;94970.47;;;14.65
69348;BMP280;56497;45.058;41.926;2022-09-09T00:58:52;94970.00;;;14.66
69348;BMP280;56497;45.058;41.926;2022-09-09T01:01:12;94970.13;;;14.57
69348;BMP280;56497;45.058;41.926;2022-09-09T01:01:43;94973.84;;;14.54
69348;BMP280;56497;45.058;41.926;2022-09-09T01:03:55;94972.72;;;14.46
69348;BMP280;56497;45.058;41.926;2022-09-09T01:04:33;94972.72;;;14.46
69348;BMP280;56497;45.058;41.926;2022-09-09T01:05:16;94969.00;;;14.43
69348;BMP280;56497;45.058;41.926;2022-09-09T01:06:12;94967.94;;;14.41
69348;BMP280;56497;45.058;41.926;2022-09-09T01:06:45;94972.38;;;14.38
69348;BMP280;56497;45.058;41.926;2022-09-09T01:07:23;94970.63;;;14.35
69348;BMP280;56497;45.058;41.926;2022-09-09T01:07:53;94971.84;;;14.34
69348;BMP280;56497;45.058;41.926;2022-09-09T01:09:59;94969.78;;;14.29
69348;BMP280;56497;45.058;41.926;2022-09-09T01:10:44;94970.28;;;14.28
69348;BMP280;56497;45.058;41.926;2022-09-09T01:11:24;94976.41;;;14.23
69348;BMP280;56497;45.058;41.926;2022-09-09T01:12:09;94968.69;;;14.21
69348;BMP280;56497;45.058;41.926;2022-09-09T01:12:42;94972.84;;;14.17
69348;BMP280;56497;45.058;41.926;2022-09-09T01:13:21;94977.09;;;14.18
69348;BMP280;56497;45.058;41.926;2022-09-09T01:14:47;94976.53;;;14.13
69348;BMP280;56497;45.058;41.926;2022-09-09T01:14:56;94975.22;;;14.09
69348;BMP280;56497;45.058;41.926;2022-09-09T01:15:31;94979.19;;;14.08
69348;BMP280;56497;45.058;41.926;2022-09-09T01:16:04;94979.19;;;14.08
69348;BMP280;56497;45.058;41.926;2022-09-09T01:16:36;94971.75;;;14.08
69348;BMP280;56497;45.058;41.926;2022-09-09T01:17:24;94966.28;;;14.08
69348;BMP280;56497;45.058;41.926;2022-09-09T01:18:07;94971.91;;;13.99
69348;BMP280;56497;45.058;41.926;2022-09-09T01:18:44;94971.91;;;13.99
69348;BMP280;56497;45.058;41.926;2022-09-09T01:19:31;94976.56;;;13.99
69348;BMP280;56497;45.058;41.926;2022-09-09T01:20:15;94981.75;;;13.97
69348;BMP280;56497;45.058;41.926;2022-09-09T01:20:59;94980.44;;;13.92
69348;BMP280;56497;45.058;41.926;2022-09-09T01:22:47;94977.63;;;13.87
69348;BMP280;56497;45.058;41.926;2022-09-09T01:23:34;94981.81;;;13.82
69348;BMP280;56497;45.058;41.926;2022-09-09T01:26:08;94979.25;;;13.78
69348;BMP280;56497;45.058;41.926;2022-09-09T01:26:48;94975.16;;;13.68
69348;BMP280;56497;45.058;41.926;2022-09-09T01:27:21;94973.38;;;13.65
69348;BMP280;56497;45.058;41.926;2022-09-09T01:28:00;94981.38;;;13.69
69348;BMP280;56497;45.058;41.926;2022-09-09T01:28:33;94975.91;;;13.69
69348;BMP280;56497;45.058;41.926;2022-09-09T01:29:11;94968.50;;;13.69
69348;BMP280;56497;45.058;41.926;2022-09-09T01:29:42;94975.91;;;13.69
69348;BMP280;56497;45.058;41.926;2022-09-09T01:30:16;94974.19;;;13.71
69348;BMP280;56497;45.058;41.926;2022-09-09T01:30:47;94968.00;;;13.71
69348;BMP280;56497;45.058;41.926;2022-09-09T01:31:31;94975.69;;;13.72
69348;BMP280;56497;45.058;41.926;2022-09-09T01:32:42;94961.53;;;13.54
69348;BMP280;56497;45.058;41.926;2022-09-09T01:33:16;94961.53;;;13.54
69348;BMP280;56497;45.058;41.926;2022-09-09T01:33:47;94977.97;;;13.59
69348;BMP280;56497;45.058;41.926;2022-09-09T01:34:19;94980.22;;;13.61
69348;BMP280;56497;45.058;41.926;2022-09-09T01:34:50;94980.78;;;13.65
69348;BMP280;56497;45.058;41.926;2022-09-09T01:35:39;94980.78;;;13.65
69348;BMP280;56497;45.058;41.926;2022-09-09T01:36:27;94991.31;;;13.57
69348;BMP280;56497;45.058;41.926;2022-09-09T01:37:03;94991.31;;;13.57
69348;BMP280;56497;45.058;41.926;2022-09-09T01:37:35;94988.13;;;13.59
69348;BMP280;56497;45.058;41.926;2022-09-09T01:38:06;94992.34;;;13.60
69348;BMP280;56497;45.058;41.926;2022-09-09T01:38:37;94981.72;;;13.62
69348;BMP280;56497;45.058;41.926;2022-09-09T01:39:08;94992.44;;;13.65
69348;BMP280;56497;45.058;41.926;2022-09-09T01:39:42;94991.97;;;13.67
69348;BMP280;56497;45.058;41.926;2022-09-09T01:40:13;94991.97;;;13.67
69348;BMP280;56497;45.058;41.926;2022-09-09T01:40:44;94987.72;;;13.66
69348;BMP280;56497;45.058;41.926;2022-09-09T01:41:14;94991.50;;;13.68
69348;BMP280;56497;45.058;41.926;2022-09-09T01:41:45;94986.31;;;13.70
69348;BMP280;56497;45.058;41.926;2022-09-09T01:42:16;94986.31;;;13.70
69348;BMP280;56497;45.058;41.926;2022-09-09T01:42:47;94989.78;;;13.71
69348;BMP280;56497;45.058;41.926;2022-09-09T01:43:21;94989.78;;;13.71
69348;BMP280;56497;45.058;41.926;2022-09-09T01:43:54;94992.50;;;13.71
69348;BMP280;56497;45.058;41.926;2022-09-09T01:44:25;94995.25;;;13.71
69348;BMP280;56497;45.058;41.926;2022-09-09T01:44:57;94993.25;;;13.71
69348;BMP280;56497;45.058;41.926;2022-09-09T01:45:27;94993.25;;;13.71
69348;BMP280;56497;45.058;41.926;2022-09-09T01:46:01;94990.06;;;13.73
69348;BMP280;56497;45.058;41.926;2022-09-09T01:46:32;94990.81;;;13.73
69348;BMP280;56497;45.058;41.926;2022-09-09T01:47:03;94990.81;;;13.73
69348;BMP280;56497;45.058;41.926;2022-09-09T01:47:34;94981.16;;;13.72
69348;BMP280;56497;45.058;41.926;2022-09-09T01:48:05;94986.88;;;13.74
69348;BMP280;56497;45.058;41.926;2022-09-09T01:48:36;94985.69;;;13.75
69348;BMP280;56497;45.058;41.926;2022-09-09T01:49:08;94982.94;;;13.75
69348;BMP280;56497;45.058;41.926;2022-09-09T01:49:38;94987.16;;;13.76
69348;BMP280;56497;45.058;41.926;2022-09-09T01:50:10;94983.69;;;13.76
69348;BMP280;56497;45.058;41.926;2022-09-09T01:50:42;94983.69;;;13.76
69348;BMP280;56497;45.058;41.926;2022-09-09T01:51:12;94982.44;;;13.77
69348;BMP280;56497;45.058;41.926;2022-09-09T01:51:43;94980.94;;;13.76
69348;BMP280;56497;45.058;41.926;2022-09-09T01:52:16;94979.72;;;13.77
69348;BMP280;56497;45.058;41.926;2022-09-09T01:52:50;94982.19;;;13.75
69348;BMP280;56497;45.058;41.926;2022-09-09T01:53:23;94978.69;;;13.74
69348;BMP280;56497;45.058;41.926;2022-09-09T01:53:53;94982.19;;;13.75
69348;BMP280;56497;45.058;41.926;2022-09-09T01:54:27;94982.19;;;13.75
69348;BMP280;56497;45.058;41.926;2022-09-09T01:54:59;94977.94;;;13.74
69348;BMP280;56497;45.058;41.926;2022-09-09T01:55:38;94971.75;;;13.73
69348;BMP280;56497;45.058;41.926;2022-09-09T01:57:55;94975.63;;;13.67
69348;BMP280;56497;45.058;41.926;2022-09-09T02:00:13;94970.94;;;13.53
69348;BMP280;56497;45.058;41.926;2022-09-09T02:00:55;94970.66;;;13.51
69348;BMP280;56497;45.058;41.926;2022-09-09T02:03:32;94970.00;;;13.41
69348;BMP280;56497;45.058;41.926;2022-09-09T02:04:18;94975.72;;;13.43
69348;BMP280;56497;45.058;41.926;2022-09-09T02:05:05;94975.72;;;13.43
69348;BMP280;56497;45.058;41.926;2022-09-09T02:05:40;94972.72;;;13.41
69348;BMP280;56497;45.058;41.926;2022-09-09T02:06:35;94972.16;;;13.37
69348;BMP280;56497;45.058;41.926;2022-09-09T02:07:37;94972.66;;;13.35
69348;BMP280;56497;45.058;41.926;2022-09-09T02:08:11;94972.66;;;13.35
69348;BMP280;56497;45.058;41.926;2022-09-09T02:09:11;94971.16;;;13.34
69348;BMP280;56497;45.058;41.926;2022-09-09T02:09:44;94973.50;;;13.27
69348;BMP280;56497;45.058;41.926;2022-09-09T02:10:30;94977.06;;;13.33
69348;BMP280;56497;45.058;41.926;2022-09-09T02:11:14;94982.94;;;13.31
69348;BMP280;56497;45.058;41.926;2022-09-09T02:11:47;94984.75;;;13.34
69348;BMP280;56497;45.058;41.926;2022-09-09T02:12:23;94979.59;;;13.36
69348;BMP280;56497;45.058;41.926;2022-09-09T02:13:08;94979.59;;;13.36
69348;BMP280;56497;45.058;41.926;2022-09-09T02:13:40;94983.25;;;13.33
69348;BMP280;56497;45.058;41.926;2022-09-09T02:14:16;94975.66;;;13.37
69348;BMP280;56497;45.058;41.926;2022-09-09T02:14:54;94979.84;;;13.38
69348;BMP280;56497;45.058;41.926;2022-09-09T02:15:38;94993.75;;;13.40
69348;BMP280;56497;45.058;41.926;2022-09-09T02:16:24;94984.53;;;13.38
69348;BMP280;56497;45.058;41.926;2022-09-09T02:17:05;94984.53;;;13.38
69348;BMP280;56497;45.058;41.926;2022-09-09T02:17:40;94993.19;;;13.36
69348;BMP280;56497;45.058;41.926;2022-09-09T02:18:13;94993.00;;;13.40
69348;BMP280;56497;45.058;41.926;2022-09-09T02:18:50;94993.00;;;13.40
69348;BMP280;56497;45.058;41.926;2022-09-09T02:19:31;94991.78;;;13.41
69348;BMP280;56497;45.058;41.926;2022-09-09T02:20:08;94998.91;;;13.38
69348;BMP280;56497;45.058;41.926;2022-09-09T02:20:42;94993.00;;;13.40
69348;BMP280;56497;45.058;41.926;2022-09-09T02:21:14;94994.78;;;13.43
69348;BMP280;56497;45.058;41.926;2022-09-09T02:21:46;94994.78;;;13.43
69348;BMP280;56497;45.058;41.926;2022-09-09T02:22:19;94994.03;;;13.42
69348;BMP280;56497;45.058;41.926;2022-09-09T02:22:52;95001.72;;;13.44
69348;BMP280;56497;45.058;41.926;2022-09-09T02:23:24;94994.28;;;13.44
69348;BMP280;56497;45.058;41.926;2022-09-09T02:23:58;95002.78;;;13.46
69348;BMP280;56497;45.058;41.926;2022-09-09T02:24:32;95000.81;;;13.47
69348;BMP280;56497;45.058;41.926;2022-09-09T02:25:06;95000.81;;;13.47
69348;BMP280;56497;45.058;41.926;2022-09-09T02:25:39;94998.84;;;13.47
69348;BMP280;56497;45.058;41.926;2022-09-09T02:26:12;95001.56;;;13.47
69348;BMP280;56497;45.058;41.926;2022-09-09T02:26:53;95001.09;;;13.49
69348;BMP280;56497;45.058;41.926;2022-09-09T02:27:25;94996.56;;;13.46
69348;BMP280;56497;45.058;41.926;2022-09-09T02:27:56;95000.34;;;13.48
69348;BMP280;56497;45.058;41.926;2022-09-09T02:28:32;95000.34;;;13.48
69348;BMP280;56497;45.058;41.926;2022-09-09T02:29:08;95005.78;;;13.48
69348;BMP280;56497;45.058;41.926;2022-09-09T02:29:42;95002.31;;;13.48
69348;BMP280;56497;45.058;41.926;2022-09-09T02:30:14;95002.31;;;13.48
69348;BMP280;56497;45.058;41.926;2022-09-09T02:30:45;94990.19;;;13.49
69348;BMP280;56497;45.058;41.926;2022-09-09T02:31:18;95006.81;;;13.51
69348;BMP280;56497;45.058;41.926;2022-09-09T02:31:50;95006.81;;;13.51
69348;BMP280;56497;45.058;41.926;2022-09-09T02:32:25;95006.81;;;13.51
69348;BMP280;56497;45.058;41.926;2022-09-09T02:32:57;94999.13;;;13.50
69348;BMP280;56497;45.058;41.926;2022-09-09T02:33:34;95009.53;;;13.51
69348;BMP280;56497;45.058;41.926;2022-09-09T02:34:09;94999.88;;;13.50
69348;BMP280;56497;45.058;41.926;2022-09-09T02:34:47;95007.75;;;13.48
69348;BMP280;56497;45.058;41.926;2022-09-09T02:35:21;95005.03;;;13.48
69348;BMP280;56497;45.058;41.926;2022-09-09T02:35:55;95000.34;;;13.48
69348;BMP280;56497;45.058;41.926;2022-09-09T02:36:34;95004.28;;;13.47
69348;BMP280;56497;45.058;41.926;2022-09-09T02:37:07;95006.25;;;13.47
69348;BMP280;56497;45.058;41.926;2022-09-09T02:37:42;94999.59;;;13.48
69348;BMP280;56497;45.058;41.926;2022-09-09T02:38:15;94999.59;;;13.48
69348;BMP280;56497;45.058;41.926;2022-09-09T02:38:47;95013.19;;;13.48
69348;BMP280;56497;45.058;41.926;2022-09-09T02:39:23;95005.03;;;13.48
69348;BMP280;56497;45.058;41.926;2022-09-09T02:39:54;95010.94;;;13.46
69348;BMP280;56497;45.058;41.926;2022-09-09T02:40:25;95006.25;;;13.47
69348;BMP280;56497;45.058;41.926;2022-09-09T02:40:56;95010.94;;;13.46
69348;BMP280;56497;45.058;41.926;2022-09-09T02:41:31;95009.72;;;13.47
69348;BMP280;56497;45.058;41.926;2022-09-09T02:42:04;95016.69;;;13.48
69348;BMP280;56497;45.058;41.926;2022-09-09T02:42:40;95016.69;;;13.48
69348;BMP280;56497;45.058;41.926;2022-09-09T02:43:11;95013.66;;;13.46
69348;BMP280;56497;45.058;41.926;2022-09-09T02:43:41;95012.44;;;13.47
69348;BMP280;56497;45.058;41.926;2022-09-09T02:44:16;95011.69;;;13.47
69348;BMP280;56497;45.058;41.926;2022-09-09T02:44:47;95015.91;;;13.48
69348;BMP280;56497;45.058;41.926;2022-09-09T02:45:20;95011.41;;;13.45
69348;BMP280;56497;45.058;41.926;2022-09-09T02:46:00;95017.63;;;13.45
69348;BMP280;56497;45.058;41.926;2022-09-09T02:47:22;95011.31;;;13.39
69348;BMP280;56497;45.058;41.926;2022-09-09T02:48:29;95019.22;;;13.37
69348;BMP280;56497;45.058;41.926;2022-09-09T02:49:09;95014.13;;;13.30
69348;BMP280;56497;45.058;41.926;2022-09-09T02:50:37;95016.28;;;13.26
69348;BMP280;56497;45.058;41.926;2022-09-09T02:51:35;95010.81;;;13.26
69348;BMP280;56497;45.058;41.926;2022-09-09T02:52:08;95018.75;;;13.24
69348;BMP280;56497;45.058;41.926;2022-09-09T02:53:32;95015.25;;;13.24
69348;BMP280;56497;45.058;41.926;2022-09-09T02:54:43;95008.56;;;13.25
69348;BMP280;56497;45.058;41.926;2022-09-09T02:55:36;95008.56;;;13.25
69348;BMP280;56497;45.058;41.926;2022-09-09T02:56:15;95019.78;;;13.27
69348;BMP280;56497;45.058;41.926;2022-09-09T02:56:52;95018.44;;;13.22
69348;BMP280;56497;45.058;41.926;2022-09-09T02:57:28;95018.44;;;13.22
69348;BMP280;56497;45.058;41.926;2022-09-09T02:58:01;95019.47;;;13.25
69348;BMP280;56497;45.058;41.926;2022-09-09T02:58:33;95019.47;;;13.25
69348;BMP280;56497;45.058;41.926;2022-09-09T02:59:05;95012.03;;;13.25
69348;BMP280;56497;45.058;41.926;2022-09-09T02:59:40;95014.75;;;13.25
69348;BMP280;56497;45.058;41.926;2022-09-09T03:00:12;95016.28;;;13.26
69348;BMP280;56497;45.058;41.926;2022-09-09T03:00:45;95010.38;;;13.28
69348;BMP280;56497;45.058;41.926;2022-09-09T03:01:17;95009.16;;;13.29
69348;BMP280;56497;45.058;41.926;2022-09-09T03:01:48;95018.34;;;13.31
69348;BMP280;56497;45.058;41.926;2022-09-09T03:02:18;95021.06;;;13.31
69348;BMP280;56497;45.058;41.926;2022-09-09T03:02:50;95015.91;;;13.33
69348;BMP280;56497;45.058;41.926;2022-09-09T03:03:21;95013.47;;;13.35
69348;BMP280;56497;45.058;41.926;2022-09-09T03:03:52;95018.94;;;13.35
69348;BMP280;56497;45.058;41.926;2022-09-09T03:04:22;95015.75;;;13.37
69348;BMP280;56497;45.058;41.926;2022-09-09T03:04:55;95017.22;;;13.38
69348;BMP280;56497;45.058;41.926;2022-09-09T03:05:25;95022.22;;;13.39
69348;BMP280;56497;45.058;41.926;2022-09-09T03:05:56;95018.28;;;13.40
69348;BMP280;56497;45.058;41.926;2022-09-09T03:06:27;95017.06;;;13.41
69348;BMP280;56497;45.058;41.926;2022-09-09T03:06:58;95012.34;;;13.42
69348;BMP280;56497;45.058;41.926;2022-09-09T03:07:29;95012.34;;;13.42
69348;BMP280;56497;45.058;41.926;2022-09-09T03:08:00;95023.06;;;13.45
69348;BMP280;56497;45.058;41.926;2022-09-09T03:08:30;95012.91;;;13.46
69348;BMP280;56497;45.058;41.926;2022-09-09T03:09:01;95019.41;;;13.48
69348;BMP280;56497;45.058;41.926;2022-09-09T03:09:33;95020.63;;;13.47
69348;BMP280;56497;45.058;41.926;2022-09-09T03:10:03;95024.09;;;13.48
69348;BMP280;56497;45.058;41.926;2022-09-09T03:10:34;95024.38;;;13.50
69348;BMP280;56497;45.058;41.926;2022-09-09T03:11:05;95021.19;;;13.52
69348;BMP280;56497;45.058;41.926;2022-09-09T03:11:36;95018.47;;;13.52
69348;BMP280;56497;45.058;41.926;2022-09-09T03:12:08;95022.69;;;13.53
69348;BMP280;56497;45.058;41.926;2022-09-09T03:12:41;95022.69;;;13.53
69348;BMP280;56497;45.058;41.926;2022-09-09T03:13:12;95025.97;;;13.57
69348;BMP280;56497;45.058;41.926;2022-09-09T03:13:43;95024.75;;;13.58
69348;BMP280;56497;45.058;41.926;2022-09-09T03:14:13;95024.28;;;13.59
69348;BMP280;56497;45.058;41.926;2022-09-09T03:14:44;95024.28;;;13.59
69348;BMP280;56497;45.058;41.926;2022-09-09T03:15:16;95027.75;;;13.60
69348;BMP280;56497;45.058;41.926;2022-09-09T03:15:48;95028.31;;;13.64
69348;BMP280;56497;45.058;41.926;2022-09-09T03:16:19;95019.66;;;13.65
69348;BMP280;56497;45.058;41.926;2022-09-09T03:16:50;95019.66;;;13.65
69348;BMP280;56497;45.058;41.926;2022-09-09T03:17:21;95024.94;;;13.69
69348;BMP280;56497;45.058;41.926;2022-09-09T03:17:52;95024.94;;;13.69
69348;BMP280;56497;45.058;41.926;2022-09-09T03:18:22;95027.94;;;13.71
69348;BMP280;56497;45.058;41.926;2022-09-09T03:18:53;95025.00;;;13.74
69348;BMP280;56497;45.058;41.926;2022-09-09T03:19:24;95019.38;;;13.78
69348;BMP280;56497;45.058;41.926;2022-09-09T03:19:54;95022.19;;;13.84
69348;BMP280;56497;45.058;41.926;2022-09-09T03:20:29;95019.06;;;13.91
69348;BMP280;56497;45.058;41.926;2022-09-09T03:21:01;95020.97;;;13.99
69348;BMP280;56497;45.058;41.926;2022-09-09T03:21:31;95024.56;;;14.11
69348;BMP280;56497;45.058;41.926;2022-09-09T03:22:02;95023.97;;;14.22
69348;BMP280;56497;45.058;41.926;2022-09-09T03:22:34;95017.59;;;14.45
69348;BMP280;56497;45.058;41.926;2022-09-09T03:23:05;95023.00;;;14.60
69348;BMP280;56497;45.058;41.926;2022-09-09T03:23:36;95023.00;;;14.60
69348;BMP280;56497;45.058;41.926;2022-09-09T03:24:06;95023.41;;;14.73
69348;BMP280;56497;45.058;41.926;2022-09-09T03:24:37;95020.03;;;14.84
69348;BMP280;56497;45.058;41.926;2022-09-09T03:25:08;95030.13;;;14.98
69348;BMP280;56497;45.058;41.926;2022-09-09T03:25:38;95021.31;;;15.08
69348;BMP280;56497;45.058;41.926;2022-09-09T03:26:09;95023.66;;;15.21
69348;BMP280;56497;45.058;41.926;2022-09-09T03:26:41;95018.81;;;15.31
69348;BMP280;56497;45.058;41.926;2022-09-09T03:27:14;95021.88;;;15.44
69348;BMP280;56497;45.058;41.926;2022-09-09T03:27:46;95021.31;;;15.66
69348;BMP280;56497;45.058;41.926;2022-09-09T03:28:17;95030.63;;;15.80
69348;BMP280;56497;45.058;41.926;2022-09-09T03:28:47;95030.63;;;15.80
69348;BMP280;56497;45.058;41.926;2022-09-09T03:29:18;95025.25;;;15.91
69348;BMP280;56497;45.058;41.926;2022-09-09T03:29:49;95020.59;;;16.02
69348;BMP280;56497;45.058;41.926;2022-09-09T03:30:23;95023.41;;;16.14
69348;BMP280;56497;45.058;41.926;2022-09-09T03:30:58;95018.50;;;16.23
69348;BMP280;56497;45.058;41.926;2022-09-09T03:31:29;95020.25;;;16.32
69348;BMP280;56497;45.058;41.926;2022-09-09T03:32:00;95014.84;;;16.43
69348;BMP280;56497;45.058;41.926;2022-09-09T03:32:31;95014.84;;;16.43
69348;BMP280;56497;45.058;41.926;2022-09-09T03:33:01;95028.81;;;16.56
69348;BMP280;56497;45.058;41.926;2022-09-09T03:33:32;95028.81;;;16.56
69348;BMP280;56497;45.058;41.926;2022-09-09T03:34:04;95030.84;;;16.61
69348;BMP280;56497;45.058;41.926;2022-09-09T03:34:35;95021.94;;;16.66
69348;BMP280;56497;45.058;41.926;2022-09-09T03:35:09;95031.41;;;16.76
69348;BMP280;56497;45.058;41.926;2022-09-09T03:35:45;95031.41;;;16.76
69348;BMP280;56497;45.058;41.926;2022-09-09T03:36:18;95034.38;;;16.79
69348;BMP280;56497;45.058;41.926;2022-09-09T03:36:49;95039.59;;;16.82
69348;BMP280;56497;45.058;41.926;2022-09-09T03:37:20;95037.16;;;16.84
69348;BMP280;56497;45.058;41.926;2022-09-09T03:37:50;95039.63;;;16.88
69348;BMP280;56497;45.058;41.926;2022-09-09T03:38:22;95039.44;;;16.97
69348;BMP280;56497;45.058;41.926;2022-09-09T03:38:53;95034.47;;;17.06
69348;BMP280;56497;45.058;41.926;2022-09-09T03:39:24;95034.47;;;17.06
69348;BMP280;56497;45.058;41.926;2022-09-09T03:39:55;95035.19;;;17.13
69348;BMP280;56497;45.058;41.926;2022-09-09T03:40:26;95034.25;;;17.21
69348;BMP280;56497;45.058;41.926;2022-09-09T03:40:56;95035.25;;;17.29
69348;BMP280;56497;45.058;41.926;2022-09-09T03:41:27;95031.50;;;17.38
69348;BMP280;56497;45.058;41.926;2022-09-09T03:41:58;95032.75;;;17.48
69348;BMP280;56497;45.058;41.926;2022-09-09T03:42:29;95035.28;;;17.57
69348;BMP280;56497;45.058;41.926;2022-09-09T03:43:01;95030.28;;;17.67
69348;BMP280;56497;45.058;41.926;2022-09-09T03:43:31;95026.03;;;17.83
69348;BMP280;56497;45.058;41.926;2022-09-09T03:44:02;95046.19;;;18.02
69348;BMP280;56497;45.058;41.926;2022-09-09T03:44:33;95046.19;;;18.02
69348;BMP280;56497;45.058;41.926;2022-09-09T03:45:06;95037.72;;;18.00
69348;BMP280;56497;45.058;41.926;2022-09-09T03:45:37;95028.47;;;18.08
69348;BMP280;56497;45.058;41.926;2022-09-09T03:46:07;95032.44;;;18.19
69348;BMP280;56497;45.058;41.926;2022-09-09T03:46:38;95031.41;;;18.27
69348;BMP280;56497;45.058;41.926;2022-09-09T03:47:08;95032.38;;;18.35
69348;BMP280;56497;45.058;41.926;2022-09-09T03:47:39;95032.09;;;18.44
69348;BMP280;56497;45.058;41.926;2022-09-09T03:48:10;95033.09;;;18.53
69348;BMP280;56497;45.058;41.926;2022-09-09T03:48:42;95037.22;;;18.70
69348;BMP280;56497;45.058;41.926;2022-09-09T03:49:12;95036.72;;;18.77
69348;BMP280;56497;45.058;41.926;2022-09-09T03:49:43;95036.72;;;18.77
69348;BMP280;56497;45.058;41.926;2022-09-09T03:50:14;95035.66;;;18.86
69348;BMP280;56497;45.058;41.926;2022-09-09T03:50:50;95037.38;;;18.95
69348;BMP280;56497;45.058;41.926;2022-09-09T03:51:21;95037.06;;;19.04
69348;BMP280;56497;45.058;41.926;2022-09-09T03:51:52;95035.25;;;19.12
69348;BMP280;56497;45.058;41.926;2022-09-09T03:52:22;95039.38;;;19.30
69348;BMP280;56497;45.058;41.926;2022-09-09T03:52:55;95039.38;;;19.30
69348;BMP280;56497;45.058;41.926;2022-09-09T03:53:25;95035.31;;;19.36
69348;BMP280;56497;45.058;41.926;2022-09-09T03:53:56;95039.97;;;19.52
69348;BMP280;56497;45.058;41.926;2022-09-09T03:54:28;95042.88;;;19.60
69348;BMP280;56497;45.058;41.926;2022-09-09T03:54:58;95042.88;;;19.60
69348;BMP280;56497;45.058;41.926;2022-09-09T03:55:29;95043.09;;;19.68